sensor_id;sensor_type;location;lat;lon;timestamp;P1;P2;P0
77692;PMS5003;66984;47.404;18.836;2023-04-02T00:00:29;0.00;0.00;0.00
77692;PMS5003;66984;47.404;18.836;2023-04-02T00:01:36;1.00;1.00;0.00
77692;PMS5003;66984;47.404;18.836;2023-04-02T00:02:45;1.00;1.00;0.00
77692;PMS5003;66984;47.404;18.836;2023-04-02T00:07:46;1.00;1.00;0.00
77692;PMS5003;66984;47.404;18.836;2023-04-02T00:08:51;1.25;1.00;0.00
77692;PMS5003;66984;47.404;18.836;2023-04-02T00:09:57;2.00;2.00;0.00
77692;PMS5003;66984;47.404;18.836;2023-04-02T00:11:00;1.50;1.00;0.00
77692;PMS5003;66984;47.404;18.836;2023-04-02T00:12:11;1.00;1.00;0.00
77692;PMS5003;66984;47.404;18.836;2023-04-02T00:14:30;1.00;1.00;0.00
77692;PMS5003;66984;47.404;18.836;2023-04-02T00:15:38;0.00;0.00;0.00
77692;PMS5003;66984;47.404;18.836;2023-04-02T00:16:47;0.00;0.00;0.00
77692;PMS5003;66984;47.404;18.836;2023-04-02T00:17:50;0.75;0.75;0.00
77692;PMS5003;66984;47.404;18.836;2023-04-02T00:18:53;0.00;0.00;0.00
77692;PMS5003;66984;47.404;18.836;2023-04-02T00:19:59;0.00;0.00;0.00
77692;PMS5003;66984;47.404;18.836;2023-04-02T00:21:21;0.00;0.00;0.00
77692;PMS5003;66984;47.404;18.836;2023-04-02T00:22:33;0.00;0.00;0.00
77692;PMS5003;66984;47.404;18.836;2023-04-02T00:23:40;0.00;0.00;0.00
77692;PMS5003;66984;47.404;18.836;2023-04-02T00:24:45;0.00;0.00;0.00
77692;PMS5003;66984;47.404;18.836;2023-04-02T00:25:51;0.00;0.00;0.00
77692;PMS5003;66984;47.404;18.836;2023-04-02T00:26:54;0.00;0.00;0.00
77692;PMS5003;66984;47.404;18.836;2023-04-02T00:27:57;1.00;1.00;0.00
77692;PMS5003;66984;47.404;18.836;2023-04-02T00:29:00;1.00;1.00;0.00
77692;PMS5003;66984;47.404;18.836;2023-04-02T00:30:05;2.00;1.00;0.00
77692;PMS5003;66984;47.404;18.836;2023-04-02T00:31:09;1.50;1.50;0.00
77692;PMS5003;66984;47.404;18.836;2023-04-02T00:32:16;0.00;0.00;0.00
77692;PMS5003;66984;47.404;18.836;2023-04-02T00:33:24;1.25;1.00;0.00
77692;PMS5003;66984;47.404;18.836;2023-04-02T00:34:31;1.00;1.00;0.00
77692;PMS5003;66984;47.404;18.836;2023-04-02T00:35:37;0.00;0.00;0.00
77692;PMS5003;66984;47.404;18.836;2023-04-02T00:36:41;1.00;1.00;0.00
77692;PMS5003;66984;47.404;18.836;2023-04-02T00:37:45;1.50;1.50;0.00
77692;PMS5003;66984;47.404;18.836;2023-04-02T00:38:48;0.00;0.00;0.00
77692;PMS5003;66984;47.404;18.836;2023-04-02T00:40:01;0.00;0.00;0.00
77692;PMS5003;66984;47.404;18.836;2023-04-02T00:41:12;0.00;0.00;0.00
77692;PMS5003;66984;47.404;18.836;2023-04-02T00:42:19;0.00;0.00;0.00
77692;PMS5003;66984;47.404;18.836;2023-04-02T00:43:24;0.00;0.00;0.00
77692;PMS5003;66984;47.404;18.836;2023-04-02T00:44:33;0.00;0.00;0.00
77692;PMS5003;66984;47.404;18.836;2023-04-02T00:45:40;1.75;1.75;0.00
77692;PMS5003;66984;47.404;18.836;2023-04-02T00:46:43;1.00;1.00;0.00
77692;PMS5003;66984;47.404;18.836;2023-04-02T00:47:50;1.00;1.00;0.00
77692;PMS5003;66984;47.404;18.836;2023-04-02T00:48:58;2.00;2.00;0.00
77692;PMS5003;66984;47.404;18.836;2023-04-02T00:50:05;3.00;3.00;0.00
77692;PMS5003;66984;47.404;18.836;2023-04-02T00:51:22;2.00;2.00;0.00
77692;PMS5003;66984;47.404;18.836;2023-04-02T00:52:29;1.00;1.00;0.00
77692;PMS5003;66984;47.404;18.836;2023-04-02T00:53:34;2.00;2.00;0.00
77692;PMS5003;66984;47.404;18.836;2023-04-02T00:55:00;1.00;1.00;0.00
77692;PMS5003;66984;47.404;18.836;2023-04-02T00:56:13;0.00;0.00;0.00
77692;PMS5003;66984;47.404;18.836;2023-04-02T00:57:21;1.00;1.00;0.00
77692;PMS5003;66984;47.404;18.836;2023-04-02T00:58:31;1.00;1.00;0.00
77692;PMS5003;66984;47.404;18.836;2023-04-02T00:59:50;2.00;0.00;0.00
77692;PMS5003;66984;47.404;18.836;2023-04-02T01:00:57;0.00;0.00;0.00
77692;PMS5003;66984;47.404;18.836;2023-04-02T01:04:33;0.00;0.00;0.00
77692;PMS5003;66984;47.404;18.836;2023-04-02T01:05:38;0.00;0.00;0.00
77692;PMS5003;66984;47.404;18.836;2023-04-02T01:06:42;0.50;0.00;0.00
77692;PMS5003;66984;47.404;18.836;2023-04-02T01:07:58;2.00;1.00;0.00
77692;PMS5003;66984;47.404;18.836;2023-04-02T01:09:19;1.50;0.50;0.00
77692;PMS5003;66984;47.404;18.836;2023-04-02T01:15:39;0.00;0.00;0.00
77692;PMS5003;66984;47.404;18.836;2023-04-02T01:16:56;0.00;0.00;0.00
77692;PMS5003;66984;47.404;18.836;2023-04-02T01:18:14;0.00;0.00;0.00
77692;PMS5003;66984;47.404;18.836;2023-04-02T01:24:57;0.00;0.00;0.00
77692;PMS5003;66984;47.404;18.836;2023-04-02T01:26:09;0.00;0.00;0.00
77692;PMS5003;66984;47.404;18.836;2023-04-02T01:27:21;0.00;0.00;0.00
77692;PMS5003;66984;47.404;18.836;2023-04-02T01:30:12;0.00;0.00;0.00
77692;PMS5003;66984;47.404;18.836;2023-04-02T01:31:16;0.50;0.00;0.00
77692;PMS5003;66984;47.404;18.836;2023-04-02T01:32:19;0.00;0.00;0.00
77692;PMS5003;66984;47.404;18.836;2023-04-02T01:33:26;0.00;0.00;0.00
77692;PMS5003;66984;47.404;18.836;2023-04-02T01:34:31;0.00;0.00;0.00
77692;PMS5003;66984;47.404;18.836;2023-04-02T01:35:36;0.75;0.00;0.00
77692;PMS5003;66984;47.404;18.836;2023-04-02T01:38:17;0.00;0.00;0.00
77692;PMS5003;66984;47.404;18.836;2023-04-02T01:40:38;1.00;0.00;0.00
77692;PMS5003;66984;47.404;18.836;2023-04-02T01:44:34;0.00;0.00;0.00
77692;PMS5003;66984;47.404;18.836;2023-04-02T01:45:43;0.00;0.00;0.00
77692;PMS5003;66984;47.404;18.836;2023-04-02T01:46:47;0.00;0.00;0.00
77692;PMS5003;66984;47.404;18.836;2023-04-02T01:47:51;0.00;0.00;0.00
77692;PMS5003;66984;47.404;18.836;2023-04-02T01:48:55;0.00;0.00;0.00
77692;PMS5003;66984;47.404;18.836;2023-04-02T01:50:11;1.00;0.00;0.00
77692;PMS5003;66984;47.404;18.836;2023-04-02T01:51:24;0.00;0.00;0.00
77692;PMS5003;66984;47.404;18.836;2023-04-02T01:52:35;0.00;0.00;0.00
77692;PMS5003;66984;47.404;18.836;2023-04-02T01:53:42;0.00;0.00;0.00
77692;PMS5003;66984;47.404;18.836;2023-04-02T01:54:45;0.00;0.00;0.00
77692;PMS5003;66984;47.404;18.836;2023-04-02T01:55:53;0.00;0.00;0.00
77692;PMS5003;66984;47.404;18.836;2023-04-02T01:56:58;0.00;0.00;0.00
77692;PMS5003;66984;47.404;18.836;2023-04-02T01:58:01;0.00;0.00;0.00
77692;PMS5003;66984;47.404;18.836;2023-04-02T01:59:05;1.00;0.00;0.00
77692;PMS5003;66984;47.404;18.836;2023-04-02T02:00:12;0.00;0.00;0.00
77692;PMS5003;66984;47.404;18.836;2023-04-02T02:01:18;0.75;0.00;0.00
77692;PMS5003;66984;47.404;18.836;2023-04-02T02:02:24;0.00;0.00;0.00
77692;PMS5003;66984;47.404;18.836;2023-04-02T02:03:28;0.00;0.00;0.00
77692;PMS5003;66984;47.404;18.836;2023-04-02T02:04:31;0.00;0.00;0.00
77692;PMS5003;66984;47.404;18.836;2023-04-02T02:05:36;0.00;0.00;0.00
77692;PMS5003;66984;47.404;18.836;2023-04-02T02:06:39;0.00;0.00;0.00
77692;PMS5003;66984;47.404;18.836;2023-04-02T02:07:42;0.00;0.00;0.00
77692;PMS5003;66984;47.404;18.836;2023-04-02T02:08:50;0.00;0.00;0.00
77692;PMS5003;66984;47.404;18.836;2023-04-02T02:09:56;0.75;0.00;0.00
77692;PMS5003;66984;47.404;18.836;2023-04-02T02:10:59;0.00;0.00;0.00
77692;PMS5003;66984;47.404;18.836;2023-04-02T02:12:03;0.00;0.00;0.00
77692;PMS5003;66984;47.404;18.836;2023-04-02T02:13:09;0.75;0.75;0.00
77692;PMS5003;66984;47.404;18.836;2023-04-02T02:14:22;0.00;0.00;0.00
77692;PMS5003;66984;47.404;18.836;2023-04-02T02:15:27;0.00;0.00;0.00
77692;PMS5003;66984;47.404;18.836;2023-04-02T02:16:34;0.00;0.00;0.00
77692;PMS5003;66984;47.404;18.836;2023-04-02T02:17:43;0.00;0.00;0.00
77692;PMS5003;66984;47.404;18.836;2023-04-02T02:18:51;0.00;0.00;0.00
77692;PMS5003;66984;47.404;18.836;2023-04-02T02:19:56;0.00;0.00;0.00
77692;PMS5003;66984;47.404;18.836;2023-04-02T02:21:01;0.00;0.00;0.00
77692;PMS5003;66984;47.404;18.836;2023-04-02T02:23:23;0.00;0.00;0.00
77692;PMS5003;66984;47.404;18.836;2023-04-02T02:24:30;0.00;0.00;0.00
77692;PMS5003;66984;47.404;18.836;2023-04-02T02:25:34;0.75;0.00;0.00
77692;PMS5003;66984;47.404;18.836;2023-04-02T02:26:38;1.00;1.00;0.00
77692;PMS5003;66984;47.404;18.836;2023-04-02T02:27:54;0.00;0.00;0.00
77692;PMS5003;66984;47.404;18.836;2023-04-02T02:29:02;0.00;0.00;0.00
77692;PMS5003;66984;47.404;18.836;2023-04-02T02:30:16;1.00;1.00;0.00
77692;PMS5003;66984;47.404;18.836;2023-04-02T02:31:29;2.00;1.50;0.00
77692;PMS5003;66984;47.404;18.836;2023-04-02T02:32:34;0.00;0.00;0.00
77692;PMS5003;66984;47.404;18.836;2023-04-02T02:33:45;2.00;2.00;0.00
77692;PMS5003;66984;47.404;18.836;2023-04-02T02:35:11;1.00;1.00;0.00
77692;PMS5003;66984;47.404;18.836;2023-04-02T02:36:21;0.00;0.00;0.00
77692;PMS5003;66984;47.404;18.836;2023-04-02T02:37:29;1.25;1.25;0.00
77692;PMS5003;66984;47.404;18.836;2023-04-02T02:38:45;4.25;4.25;0.75
77692;PMS5003;66984;47.404;18.836;2023-04-02T02:40:17;3.75;3.75;2.00
77692;PMS5003;66984;47.404;18.836;2023-04-02T02:42:43;4.50;4.25;3.00
77692;PMS5003;66984;47.404;18.836;2023-04-02T02:45:18;2.00;2.00;1.75
77692;PMS5003;66984;47.404;18.836;2023-04-02T02:46:25;2.00;2.00;0.00
77692;PMS5003;66984;47.404;18.836;2023-04-02T02:47:35;2.00;2.00;0.00
77692;PMS5003;66984;47.404;18.836;2023-04-02T02:48:41;1.00;1.00;0.00
77692;PMS5003;66984;47.404;18.836;2023-04-02T02:49:46;1.25;1.00;0.00
77692;PMS5003;66984;47.404;18.836;2023-04-02T02:50:54;1.50;1.00;0.00
77692;PMS5003;66984;47.404;18.836;2023-04-02T02:53:10;0.00;0.00;0.00
77692;PMS5003;66984;47.404;18.836;2023-04-02T02:54:18;0.00;0.00;0.00
77692;PMS5003;66984;47.404;18.836;2023-04-02T02:55:43;0.25;0.25;0.00
77692;PMS5003;66984;47.404;18.836;2023-04-02T02:56:48;0.00;0.00;0.00
77692;PMS5003;66984;47.404;18.836;2023-04-02T02:58:05;0.75;0.75;0.00
77692;PMS5003;66984;47.404;18.836;2023-04-02T02:59:11;0.00;0.00;0.00
77692;PMS5003;66984;47.404;18.836;2023-04-02T03:00:16;0.00;0.00;0.00
77692;PMS5003;66984;47.404;18.836;2023-04-02T03:01:21;0.00;0.00;0.00
77692;PMS5003;66984;47.404;18.836;2023-04-02T03:02:24;0.00;0.00;0.00
77692;PMS5003;66984;47.404;18.836;2023-04-02T03:03:30;1.00;0.00;0.00
77692;PMS5003;66984;47.404;18.836;2023-04-02T03:04:35;1.00;1.00;0.00
77692;PMS5003;66984;47.404;18.836;2023-04-02T03:05:44;0.00;0.00;0.00
77692;PMS5003;66984;47.404;18.836;2023-04-02T03:06:52;0.50;0.50;0.00
77692;PMS5003;66984;47.404;18.836;2023-04-02T03:07:58;0.00;0.00;0.00
77692;PMS5003;66984;47.404;18.836;2023-04-02T03:10:23;0.00;0.00;0.00
77692;PMS5003;66984;47.404;18.836;2023-04-02T03:14:30;0.00;0.00;0.00
77692;PMS5003;66984;47.404;18.836;2023-04-02T03:15:38;0.00;0.00;0.00
77692;PMS5003;66984;47.404;18.836;2023-04-02T03:16:55;0.00;0.00;0.00
77692;PMS5003;66984;47.404;18.836;2023-04-02T03:18:11;0.00;0.00;0.00
77692;PMS5003;66984;47.404;18.836;2023-04-02T03:19:29;0.00;0.00;0.00
77692;PMS5003;66984;47.404;18.836;2023-04-02T03:20:47;0.00;0.00;0.00
77692;PMS5003;66984;47.404;18.836;2023-04-02T03:21:55;0.00;0.00;0.00
77692;PMS5003;66984;47.404;18.836;2023-04-02T03:24:02;0.00;0.00;0.00
77692;PMS5003;66984;47.404;18.836;2023-04-02T03:24:53;0.00;0.00;0.00
77692;PMS5003;66984;47.404;18.836;2023-04-02T03:26:07;0.25;0.00;0.00
77692;PMS5003;66984;47.404;18.836;2023-04-02T03:27:21;0.00;0.00;0.00
77692;PMS5003;66984;47.404;18.836;2023-04-02T03:28:30;0.50;0.00;0.00
77692;PMS5003;66984;47.404;18.836;2023-04-02T03:29:37;1.00;0.00;0.00
77692;PMS5003;66984;47.404;18.836;2023-04-02T03:30:49;0.00;0.00;0.00
77692;PMS5003;66984;47.404;18.836;2023-04-02T03:31:59;1.00;0.00;0.00
77692;PMS5003;66984;47.404;18.836;2023-04-02T03:33:20;0.00;0.00;0.00
77692;PMS5003;66984;47.404;18.836;2023-04-02T03:34:30;0.00;0.00;0.00
77692;PMS5003;66984;47.404;18.836;2023-04-02T03:36:00;0.00;0.00;0.00
77692;PMS5003;66984;47.404;18.836;2023-04-02T03:37:07;0.00;0.00;0.00
77692;PMS5003;66984;47.404;18.836;2023-04-02T03:38:19;1.00;0.00;0.00
77692;PMS5003;66984;47.404;18.836;2023-04-02T03:39:31;1.00;0.00;0.00
77692;PMS5003;66984;47.404;18.836;2023-04-02T03:40:40;0.00;0.00;0.00
77692;PMS5003;66984;47.404;18.836;2023-04-02T03:41:51;1.00;1.00;0.00
77692;PMS5003;66984;47.404;18.836;2023-04-02T03:43:02;0.25;0.00;0.00
77692;PMS5003;66984;47.404;18.836;2023-04-02T03:44:18;0.00;0.00;0.00
77692;PMS5003;66984;47.404;18.836;2023-04-02T03:45:26;1.00;1.00;0.00
77692;PMS5003;66984;47.404;18.836;2023-04-02T03:46:47;0.00;0.00;0.00
77692;PMS5003;66984;47.404;18.836;2023-04-02T03:48:19;0.00;0.00;0.00
77692;PMS5003;66984;47.404;18.836;2023-04-02T03:49:40;1.00;0.00;0.00
77692;PMS5003;66984;47.404;18.836;2023-04-02T03:50:51;0.00;0.00;0.00
77692;PMS5003;66984;47.404;18.836;2023-04-02T03:52:09;0.00;0.00;0.00
77692;PMS5003;66984;47.404;18.836;2023-04-02T03:53:15;0.50;0.50;0.00
77692;PMS5003;66984;47.404;18.836;2023-04-02T03:54:18;4.00;4.00;2.50
77692;PMS5003;66984;47.404;18.836;2023-04-02T03:55:22;4.50;4.50;3.00
77692;PMS5003;66984;47.404;18.836;2023-04-02T03:56:31;4.00;4.00;3.00
77692;PMS5003;66984;47.404;18.836;2023-04-02T03:57:58;4.00;4.00;3.00
77692;PMS5003;66984;47.404;18.836;2023-04-02T04:02:06;3.50;3.25;0.00
77692;PMS5003;66984;47.404;18.836;2023-04-02T04:03:21;2.00;2.00;0.00
77692;PMS5003;66984;47.404;18.836;2023-04-02T04:04:31;1.00;1.00;0.00
77692;PMS5003;66984;47.404;18.836;2023-04-02T04:05:37;0.00;0.00;0.00
77692;PMS5003;66984;47.404;18.836;2023-04-02T04:06:49;0.00;0.00;0.00
77692;PMS5003;66984;47.404;18.836;2023-04-02T04:07:56;0.00;0.00;0.00
77692;PMS5003;66984;47.404;18.836;2023-04-02T04:09:10;1.00;0.00;0.00
77692;PMS5003;66984;47.404;18.836;2023-04-02T04:10:23;0.00;0.00;0.00
77692;PMS5003;66984;47.404;18.836;2023-04-02T04:11:30;1.00;0.00;0.00
77692;PMS5003;66984;47.404;18.836;2023-04-02T04:12:39;0.00;0.00;0.00
77692;PMS5003;66984;47.404;18.836;2023-04-02T04:15:06;0.00;0.00;0.00
77692;PMS5003;66984;47.404;18.836;2023-04-02T04:16:19;0.00;0.00;0.00
77692;PMS5003;66984;47.404;18.836;2023-04-02T04:20:57;1.00;1.00;0.00
77692;PMS5003;66984;47.404;18.836;2023-04-02T04:22:08;0.00;0.00;0.00
77692;PMS5003;66984;47.404;18.836;2023-04-02T04:23:21;0.00;0.00;0.00
77692;PMS5003;66984;47.404;18.836;2023-04-02T04:24:31;0.00;0.00;0.00
77692;PMS5003;66984;47.404;18.836;2023-04-02T04:25:40;0.00;0.00;0.00
77692;PMS5003;66984;47.404;18.836;2023-04-02T04:26:45;0.00;0.00;0.00
77692;PMS5003;66984;47.404;18.836;2023-04-02T04:30:51;0.50;0.50;0.00
77692;PMS5003;66984;47.404;18.836;2023-04-02T04:32:16;0.00;0.00;0.00
77692;PMS5003;66984;47.404;18.836;2023-04-02T04:33:38;0.00;0.00;0.00
77692;PMS5003;66984;47.404;18.836;2023-04-02T04:34:45;0.00;0.00;0.00
77692;PMS5003;66984;47.404;18.836;2023-04-02T04:35:55;3.00;3.00;1.00
77692;PMS5003;66984;47.404;18.836;2023-04-02T04:37:03;2.00;2.00;0.00
77692;PMS5003;66984;47.404;18.836;2023-04-02T04:39:15;1.75;1.00;0.00
77692;PMS5003;66984;47.404;18.836;2023-04-02T04:40:25;0.00;0.00;0.00
77692;PMS5003;66984;47.404;18.836;2023-04-02T04:41:32;0.00;0.00;0.00
77692;PMS5003;66984;47.404;18.836;2023-04-02T04:42:39;0.00;0.00;0.00
77692;PMS5003;66984;47.404;18.836;2023-04-02T04:43:51;1.75;1.75;0.00
77692;PMS5003;66984;47.404;18.836;2023-04-02T04:46:47;1.00;1.00;0.00
77692;PMS5003;66984;47.404;18.836;2023-04-02T04:49:46;0.00;0.00;0.00
77692;PMS5003;66984;47.404;18.836;2023-04-02T04:50:59;2.00;2.00;0.00
77692;PMS5003;66984;47.404;18.836;2023-04-02T04:52:23;2.00;2.00;0.00
77692;PMS5003;66984;47.404;18.836;2023-04-02T04:53:29;3.00;3.00;0.00
77692;PMS5003;66984;47.404;18.836;2023-04-02T04:54:35;5.00;5.00;0.00
77692;PMS5003;66984;47.404;18.836;2023-04-02T04:55:43;6.00;5.00;3.00
77692;PMS5003;66984;47.404;18.836;2023-04-02T04:56:47;5.25;5.00;4.00
77692;PMS5003;66984;47.404;18.836;2023-04-02T04:57:54;8.00;7.00;5.00
77692;PMS5003;66984;47.404;18.836;2023-04-02T04:59:04;6.75;6.00;5.00
77692;PMS5003;66984;47.404;18.836;2023-04-02T05:00:59;7.00;6.75;3.00
77692;PMS5003;66984;47.404;18.836;2023-04-02T05:02:31;6.00;5.50;3.00
77692;PMS5003;66984;47.404;18.836;2023-04-02T05:04:49;10.00;10.00;5.00
77692;PMS5003;66984;47.404;18.836;2023-04-02T05:05:53;14.00;11.00;5.00
77692;PMS5003;66984;47.404;18.836;2023-04-02T05:07:14;14.00;11.00;4.75
77692;PMS5003;66984;47.404;18.836;2023-04-02T05:08:24;13.00;9.75;5.00
77692;PMS5003;66984;47.404;18.836;2023-04-02T05:10:37;10.00;9.50;5.00
77692;PMS5003;66984;47.404;18.836;2023-04-02T05:13:22;21.75;21.50;12.50
77692;PMS5003;66984;47.404;18.836;2023-04-02T05:14:37;22.25;21.25;15.00
77692;PMS5003;66984;47.404;18.836;2023-04-02T05:17:33;35.50;30.50;19.75
77692;PMS5003;66984;47.404;18.836;2023-04-02T05:18:44;36.00;30.50;20.00
77692;PMS5003;66984;47.404;18.836;2023-04-02T05:21:20;29.50;26.75;17.00
77692;PMS5003;66984;47.404;18.836;2023-04-02T05:25:41;15.00;14.00;5.25
77692;PMS5003;66984;47.404;18.836;2023-04-02T05:26:32;6.25;6.25;4.00
77692;PMS5003;66984;47.404;18.836;2023-04-02T05:30:08;3.75;3.75;1.00
77692;PMS5003;66984;47.404;18.836;2023-04-02T05:31:17;3.75;3.00;0.00
77692;PMS5003;66984;47.404;18.836;2023-04-02T05:32:29;3.25;3.00;0.00
77692;PMS5003;66984;47.404;18.836;2023-04-02T05:33:36;2.00;2.00;0.00
77692;PMS5003;66984;47.404;18.836;2023-04-02T05:34:40;2.75;2.75;0.00
77692;PMS5003;66984;47.404;18.836;2023-04-02T05:36:11;2.00;2.00;0.00
77692;PMS5003;66984;47.404;18.836;2023-04-02T05:37:18;2.00;2.00;0.00
77692;PMS5003;66984;47.404;18.836;2023-04-02T05:38:24;3.00;3.00;0.00
77692;PMS5003;66984;47.404;18.836;2023-04-02T05:39:30;3.00;3.00;0.00
77692;PMS5003;66984;47.404;18.836;2023-04-02T05:40:38;4.00;4.00;0.00
77692;PMS5003;66984;47.404;18.836;2023-04-02T05:41:47;5.00;5.00;0.50
77692;PMS5003;66984;47.404;18.836;2023-04-02T05:43:02;4.50;4.50;1.00
77692;PMS5003;66984;47.404;18.836;2023-04-02T05:44:30;3.00;3.00;1.00
77692;PMS5003;66984;47.404;18.836;2023-04-02T05:45:40;3.00;3.00;2.00
77692;PMS5003;66984;47.404;18.836;2023-04-02T05:47:06;3.00;3.00;2.00
77692;PMS5003;66984;47.404;18.836;2023-04-02T05:48:20;4.00;4.00;2.00
77692;PMS5003;66984;47.404;18.836;2023-04-02T05:50:50;6.00;5.00;3.00
77692;PMS5003;66984;47.404;18.836;2023-04-02T05:51:56;7.00;6.50;4.00
77692;PMS5003;66984;47.404;18.836;2023-04-02T05:53:11;8.00;7.75;4.00
77692;PMS5003;66984;47.404;18.836;2023-04-02T05:54:28;6.00;6.00;3.00
77692;PMS5003;66984;47.404;18.836;2023-04-02T05:56:42;6.00;5.00;2.00
77692;PMS5003;66984;47.404;18.836;2023-04-02T05:57:49;5.00;5.00;3.25
77692;PMS5003;66984;47.404;18.836;2023-04-02T06:00:00;6.00;5.00;2.00
77692;PMS5003;66984;47.404;18.836;2023-04-02T06:03:42;15.00;13.00;4.00
77692;PMS5003;66984;47.404;18.836;2023-04-02T06:05:58;9.50;7.00;2.25
77692;PMS5003;66984;47.404;18.836;2023-04-02T06:07:15;6.00;5.50;3.00
77692;PMS5003;66984;47.404;18.836;2023-04-02T06:08:44;6.50;5.00;2.00
77692;PMS5003;66984;47.404;18.836;2023-04-02T06:11:00;4.00;3.00;1.00
77692;PMS5003;66984;47.404;18.836;2023-04-02T06:13:25;5.50;5.00;2.00
77692;PMS5003;66984;47.404;18.836;2023-04-02T06:14:29;4.00;4.00;2.00
77692;PMS5003;66984;47.404;18.836;2023-04-02T06:15:33;5.00;3.25;2.50
77692;PMS5003;66984;47.404;18.836;2023-04-02T06:16:37;5.00;5.00;2.00
77692;PMS5003;66984;47.404;18.836;2023-04-02T06:17:49;5.00;5.00;1.25
77692;PMS5003;66984;47.404;18.836;2023-04-02T06:18:54;4.00;4.00;2.00
77692;PMS5003;66984;47.404;18.836;2023-04-02T06:19:58;3.00;3.00;2.00
77692;PMS5003;66984;47.404;18.836;2023-04-02T06:21:03;2.00;2.00;2.00
77692;PMS5003;66984;47.404;18.836;2023-04-02T06:22:15;3.00;3.00;1.00
77692;PMS5003;66984;47.404;18.836;2023-04-02T06:24:41;3.00;3.00;0.00
77692;PMS5003;66984;47.404;18.836;2023-04-02T06:26:13;3.00;3.00;0.00
77692;PMS5003;66984;47.404;18.836;2023-04-02T06:27:18;4.00;4.00;0.00
77692;PMS5003;66984;47.404;18.836;2023-04-02T06:28:35;3.00;3.00;0.00
77692;PMS5003;66984;47.404;18.836;2023-04-02T06:29:44;4.00;4.00;0.00
77692;PMS5003;66984;47.404;18.836;2023-04-02T06:30:50;4.00;4.00;1.00
77692;PMS5003;66984;47.404;18.836;2023-04-02T06:32:00;6.00;6.00;2.00
77692;PMS5003;66984;47.404;18.836;2023-04-02T06:33:03;5.25;5.00;2.00
77692;PMS5003;66984;47.404;18.836;2023-04-02T06:34:12;5.25;5.25;2.00
77692;PMS5003;66984;47.404;18.836;2023-04-02T06:35:18;4.00;4.00;2.00
77692;PMS5003;66984;47.404;18.836;2023-04-02T06:36:22;3.00;3.00;2.00
77692;PMS5003;66984;47.404;18.836;2023-04-02T06:37:29;2.50;2.50;1.00
77692;PMS5003;66984;47.404;18.836;2023-04-02T06:38:35;3.00;3.00;0.00
77692;PMS5003;66984;47.404;18.836;2023-04-02T06:39:39;3.00;3.00;0.00
77692;PMS5003;66984;47.404;18.836;2023-04-02T06:40:49;2.00;2.00;0.00
77692;PMS5003;66984;47.404;18.836;2023-04-02T06:42:03;1.00;1.00;0.00
77692;PMS5003;66984;47.404;18.836;2023-04-02T06:44:35;1.00;1.00;0.00
77692;PMS5003;66984;47.404;18.836;2023-04-02T06:45:39;3.00;2.25;0.00
77692;PMS5003;66984;47.404;18.836;2023-04-02T06:47:29;1.25;1.25;0.00
77692;PMS5003;66984;47.404;18.836;2023-04-02T06:48:15;1.00;1.00;0.00
77692;PMS5003;66984;47.404;18.836;2023-04-02T06:49:35;2.00;2.00;0.00
77692;PMS5003;66984;47.404;18.836;2023-04-02T06:51:57;1.00;1.00;0.00
77692;PMS5003;66984;47.404;18.836;2023-04-02T06:53:04;0.75;0.75;0.00
77692;PMS5003;66984;47.404;18.836;2023-04-02T06:54:13;0.00;0.00;0.00
77692;PMS5003;66984;47.404;18.836;2023-04-02T06:56:58;1.00;0.75;0.00
77692;PMS5003;66984;47.404;18.836;2023-04-02T06:58:01;1.00;1.00;0.00
77692;PMS5003;66984;47.404;18.836;2023-04-02T06:59:04;1.00;1.00;0.00
77692;PMS5003;66984;47.404;18.836;2023-04-02T07:00:13;1.00;1.00;0.00
77692;PMS5003;66984;47.404;18.836;2023-04-02T07:01:39;1.00;1.00;0.00
77692;PMS5003;66984;47.404;18.836;2023-04-02T07:02:48;1.00;1.00;0.00
77692;PMS5003;66984;47.404;18.836;2023-04-02T07:03:52;1.00;1.00;0.00
77692;PMS5003;66984;47.404;18.836;2023-04-02T07:05:00;1.00;1.00;0.00
77692;PMS5003;66984;47.404;18.836;2023-04-02T07:06:05;2.00;1.00;0.00
77692;PMS5003;66984;47.404;18.836;2023-04-02T07:07:15;0.00;0.00;0.00
77692;PMS5003;66984;47.404;18.836;2023-04-02T07:08:18;0.25;0.00;0.00
77692;PMS5003;66984;47.404;18.836;2023-04-02T07:09:22;4.00;4.00;0.00
77692;PMS5003;66984;47.404;18.836;2023-04-02T07:10:25;5.00;5.00;0.00
77692;PMS5003;66984;47.404;18.836;2023-04-02T07:11:28;4.00;4.00;0.00
77692;PMS5003;66984;47.404;18.836;2023-04-02T07:12:31;2.00;2.00;1.00
77692;PMS5003;66984;47.404;18.836;2023-04-02T07:13:34;3.00;2.00;0.00
77692;PMS5003;66984;47.404;18.836;2023-04-02T07:14:37;4.00;3.00;0.00
77692;PMS5003;66984;47.404;18.836;2023-04-02T07:15:39;1.00;1.00;0.00
77692;PMS5003;66984;47.404;18.836;2023-04-02T07:16:42;0.75;0.75;0.00
77692;PMS5003;66984;47.404;18.836;2023-04-02T07:17:46;2.00;2.00;0.00
77692;PMS5003;66984;47.404;18.836;2023-04-02T07:18:49;1.00;1.00;0.00
77692;PMS5003;66984;47.404;18.836;2023-04-02T07:19:52;4.50;4.50;0.00
77692;PMS5003;66984;47.404;18.836;2023-04-02T07:20:54;4.00;4.00;1.00
77692;PMS5003;66984;47.404;18.836;2023-04-02T07:21:58;4.00;3.00;1.00
77692;PMS5003;66984;47.404;18.836;2023-04-02T07:23:01;2.00;2.00;0.00
77692;PMS5003;66984;47.404;18.836;2023-04-02T07:24:04;4.00;3.00;0.00
77692;PMS5003;66984;47.404;18.836;2023-04-02T07:25:08;0.50;0.50;0.00
77692;PMS5003;66984;47.404;18.836;2023-04-02T07:26:13;0.00;0.00;0.00
77692;PMS5003;66984;47.404;18.836;2023-04-02T07:27:17;0.00;0.00;0.00
77692;PMS5003;66984;47.404;18.836;2023-04-02T07:28:20;0.00;0.00;0.00
77692;PMS5003;66984;47.404;18.836;2023-04-02T07:29:24;1.00;0.00;0.00
77692;PMS5003;66984;47.404;18.836;2023-04-02T07:30:27;1.00;1.00;0.00
77692;PMS5003;66984;47.404;18.836;2023-04-02T07:31:30;0.00;0.00;0.00
77692;PMS5003;66984;47.404;18.836;2023-04-02T07:32:33;0.50;0.50;0.00
77692;PMS5003;66984;47.404;18.836;2023-04-02T07:33:36;0.00;0.00;0.00
77692;PMS5003;66984;47.404;18.836;2023-04-02T07:34:42;8.25;6.25;3.00
77692;PMS5003;66984;47.404;18.836;2023-04-02T07:35:45;25.00;21.00;11.25
77692;PMS5003;66984;47.404;18.836;2023-04-02T07:36:49;38.00;30.50;18.00
77692;PMS5003;66984;47.404;18.836;2023-04-02T07:37:52;29.00;27.00;17.00
77692;PMS5003;66984;47.404;18.836;2023-04-02T07:38:55;57.25;46.00;27.25
77692;PMS5003;66984;47.404;18.836;2023-04-02T07:39:59;50.75;40.75;25.00
77692;PMS5003;66984;47.404;18.836;2023-04-02T07:41:05;30.50;27.75;15.00
77692;PMS5003;66984;47.404;18.836;2023-04-02T07:42:08;12.50;10.75;3.50
77692;PMS5003;66984;47.404;18.836;2023-04-02T07:43:11;4.75;4.25;1.00
77692;PMS5003;66984;47.404;18.836;2023-04-02T07:44:14;3.75;2.00;1.00
77692;PMS5003;66984;47.404;18.836;2023-04-02T07:45:17;3.25;2.00;0.00
77692;PMS5003;66984;47.404;18.836;2023-04-02T07:46:20;4.25;3.25;0.00
77692;PMS5003;66984;47.404;18.836;2023-04-02T07:47:23;9.25;9.25;5.25
77692;PMS5003;66984;47.404;18.836;2023-04-02T07:48:26;8.00;8.00;5.00
77692;PMS5003;66984;47.404;18.836;2023-04-02T07:49:30;4.00;4.00;3.00
77692;PMS5003;66984;47.404;18.836;2023-04-02T07:50:33;4.00;3.00;2.00
77692;PMS5003;66984;47.404;18.836;2023-04-02T07:51:36;4.00;3.50;2.00
77692;PMS5003;66984;47.404;18.836;2023-04-02T07:52:42;4.75;3.00;1.00
77692;PMS5003;66984;47.404;18.836;2023-04-02T07:53:45;4.75;3.25;1.00
77692;PMS5003;66984;47.404;18.836;2023-04-02T07:54:51;3.00;2.50;0.50
77692;PMS5003;66984;47.404;18.836;2023-04-02T07:55:55;5.00;5.00;2.00